sensor_id;sensor_type;location;lat;lon;timestamp;P1;durP1;ratioP1;P2;durP2;ratioP2
12665;SDS011;58531;59.050;17.416;2023-08-31T00:00:55;20.97;;;19.80;;
12665;SDS011;58531;59.050;17.416;2023-08-31T00:03:22;20.23;;;19.13;;
12665;SDS011;58531;59.050;17.416;2023-08-31T00:05:49;21.17;;;19.87;;
12665;SDS011;58531;59.050;17.416;2023-08-31T00:08:16;21.00;;;19.70;;
12665;SDS011;58531;59.050;17.416;2023-08-31T00:10:43;21.97;;;20.80;;
12665;SDS011;58531;59.050;17.416;2023-08-31T00:13:10;20.83;;;19.60;;
12665;SDS011;58531;59.050;17.416;2023-08-31T00:15:38;21.60;;;20.33;;
12665;SDS011;58531;59.050;17.416;2023-08-31T00:18:06;21.30;;;20.23;;
12665;SDS011;58531;59.050;17.416;2023-08-31T00:20:33;20.23;;;19.07;;
12665;SDS011;58531;59.050;17.416;2023-08-31T00:23:00;19.40;;;18.40;;
12665;SDS011;58531;59.050;17.416;2023-08-31T00:25:27;18.80;;;17.87;;
12665;SDS011;58531;59.050;17.416;2023-08-31T00:27:54;18.17;;;17.27;;
12665;SDS011;58531;59.050;17.416;2023-08-31T00:30:22;19.60;;;18.50;;
12665;SDS011;58531;59.050;17.416;2023-08-31T00:32:54;19.43;;;18.43;;
12665;SDS011;58531;59.050;17.416;2023-08-31T00:35:25;18.87;;;17.87;;
12665;SDS011;58531;59.050;17.416;2023-08-31T00:37:52;19.33;;;18.40;;
12665;SDS011;58531;59.050;17.416;2023-08-31T00:40:23;18.37;;;17.47;;
12665;SDS011;58531;59.050;17.416;2023-08-31T00:42:50;20.13;;;19.03;;
12665;SDS011;58531;59.050;17.416;2023-08-31T00:45:18;19.07;;;18.17;;
12665;SDS011;58531;59.050;17.416;2023-08-31T00:47:45;18.67;;;17.57;;
12665;SDS011;58531;59.050;17.416;2023-08-31T00:50:13;19.23;;;18.03;;
12665;SDS011;58531;59.050;17.416;2023-08-31T00:52:40;18.13;;;16.83;;
12665;SDS011;58531;59.050;17.416;2023-08-31T00:55:09;19.67;;;18.33;;
12665;SDS011;58531;59.050;17.416;2023-08-31T00:57:36;20.37;;;19.27;;
12665;SDS011;58531;59.050;17.416;2023-08-31T01:00:03;19.73;;;18.53;;
12665;SDS011;58531;59.050;17.416;2023-08-31T01:02:34;17.77;;;16.47;;
12665;SDS011;58531;59.050;17.416;2023-08-31T01:05:08;16.90;;;16.00;;
12665;SDS011;58531;59.050;17.416;2023-08-31T01:07:51;19.07;;;17.63;;
12665;SDS011;58531;59.050;17.416;2023-08-31T01:10:25;19.23;;;18.03;;
12665;SDS011;58531;59.050;17.416;2023-08-31T01:13:03;16.77;;;15.57;;
12665;SDS011;58531;59.050;17.416;2023-08-31T01:15:36;16.83;;;15.93;;
12665;SDS011;58531;59.050;17.416;2023-08-31T01:18:06;17.07;;;16.07;;
12665;SDS011;58531;59.050;17.416;2023-08-31T01:20:37;17.90;;;16.93;;
12665;SDS011;58531;59.050;17.416;2023-08-31T01:23:10;18.80;;;17.80;;
12665;SDS011;58531;59.050;17.416;2023-08-31T01:25:43;18.40;;;17.40;;
12665;SDS011;58531;59.050;17.416;2023-08-31T01:28:11;20.50;;;19.37;;
12665;SDS011;58531;59.050;17.416;2023-08-31T01:30:38;21.00;;;19.77;;
12665;SDS011;58531;59.050;17.416;2023-08-31T01:33:05;20.97;;;19.73;;
12665;SDS011;58531;59.050;17.416;2023-08-31T01:35:33;20.37;;;19.33;;
12665;SDS011;58531;59.050;17.416;2023-08-31T01:38:07;21.90;;;20.83;;
12665;SDS011;58531;59.050;17.416;2023-08-31T01:40:37;24.47;;;23.20;;
12665;SDS011;58531;59.050;17.416;2023-08-31T01:43:11;23.77;;;22.43;;
12665;SDS011;58531;59.050;17.416;2023-08-31T01:45:40;21.07;;;19.63;;
12665;SDS011;58531;59.050;17.416;2023-08-31T01:48:08;20.03;;;18.93;;
12665;SDS011;58531;59.050;17.416;2023-08-31T01:50:36;20.80;;;19.80;;
12665;SDS011;58531;59.050;17.416;2023-08-31T01:53:03;17.83;;;16.83;;
12665;SDS011;58531;59.050;17.416;2023-08-31T01:55:32;21.40;;;20.20;;
12665;SDS011;58531;59.050;17.416;2023-08-31T01:57:59;22.17;;;21.00;;
12665;SDS011;58531;59.050;17.416;2023-08-31T02:00:27;23.10;;;21.60;;
12665;SDS011;58531;59.050;17.416;2023-08-31T02:02:54;20.40;;;19.20;;
12665;SDS011;58531;59.050;17.416;2023-08-31T02:05:21;20.70;;;19.67;;
12665;SDS011;58531;59.050;17.416;2023-08-31T02:07:48;22.60;;;21.50;;
12665;SDS011;58531;59.050;17.416;2023-08-31T02:10:14;22.33;;;21.23;;
12665;SDS011;58531;59.050;17.416;2023-08-31T02:12:41;19.27;;;18.37;;
12665;SDS011;58531;59.050;17.416;2023-08-31T02:15:08;20.37;;;19.33;;
12665;SDS011;58531;59.050;17.416;2023-08-31T02:17:37;24.17;;;22.97;;
12665;SDS011;58531;59.050;17.416;2023-08-31T02:20:05;22.50;;;21.20;;
12665;SDS011;58531;59.050;17.416;2023-08-31T02:22:34;21.37;;;20.37;;
12665;SDS011;58531;59.050;17.416;2023-08-31T02:25:01;20.10;;;19.03;;
12665;SDS011;58531;59.050;17.416;2023-08-31T02:27:28;23.03;;;21.73;;
12665;SDS011;58531;59.050;17.416;2023-08-31T02:29:54;21.57;;;20.27;;
12665;SDS011;58531;59.050;17.416;2023-08-31T02:32:21;21.47;;;20.40;;
12665;SDS011;58531;59.050;17.416;2023-08-31T02:34:50;22.70;;;21.53;;
12665;SDS011;58531;59.050;17.416;2023-08-31T02:37:17;21.93;;;20.73;;
12665;SDS011;58531;59.050;17.416;2023-08-31T02:39:44;21.70;;;20.30;;
12665;SDS011;58531;59.050;17.416;2023-08-31T02:42:11;22.40;;;21.33;;
12665;SDS011;58531;59.050;17.416;2023-08-31T02:44:37;19.33;;;18.33;;
12665;SDS011;58531;59.050;17.416;2023-08-31T02:47:04;20.63;;;19.53;;
12665;SDS011;58531;59.050;17.416;2023-08-31T02:49:31;22.30;;;21.20;;
12665;SDS011;58531;59.050;17.416;2023-08-31T02:51:59;23.60;;;22.27;;
12665;SDS011;58531;59.050;17.416;2023-08-31T02:54:26;23.23;;;22.13;;
12665;SDS011;58531;59.050;17.416;2023-08-31T02:56:53;20.80;;;19.90;;
12665;SDS011;58531;59.050;17.416;2023-08-31T02:59:20;22.50;;;21.30;;
12665;SDS011;58531;59.050;17.416;2023-08-31T03:01:46;21.83;;;20.77;;
12665;SDS011;58531;59.050;17.416;2023-08-31T03:04:14;21.57;;;20.57;;
12665;SDS011;58531;59.050;17.416;2023-08-31T03:06:42;19.30;;;18.27;;
12665;SDS011;58531;59.050;17.416;2023-08-31T03:09:11;19.23;;;18.23;;
12665;SDS011;58531;59.050;17.416;2023-08-31T03:11:38;19.40;;;18.40;;
12665;SDS011;58531;59.050;17.416;2023-08-31T03:14:05;19.80;;;18.53;;
12665;SDS011;58531;59.050;17.416;2023-08-31T03:16:34;19.60;;;18.70;;
12665;SDS011;58531;59.050;17.416;2023-08-31T03:19:01;19.73;;;18.83;;
12665;SDS011;58531;59.050;17.416;2023-08-31T03:21:28;21.47;;;20.47;;
12665;SDS011;58531;59.050;17.416;2023-08-31T03:23:54;22.50;;;21.47;;
12665;SDS011;58531;59.050;17.416;2023-08-31T03:26:23;18.90;;;17.90;;
12665;SDS011;58531;59.050;17.416;2023-08-31T03:28:50;18.07;;;17.07;;
12665;SDS011;58531;59.050;17.416;2023-08-31T03:31:16;21.47;;;20.47;;
12665;SDS011;58531;59.050;17.416;2023-08-31T03:33:43;22.77;;;21.57;;
12665;SDS011;58531;59.050;17.416;2023-08-31T03:36:10;20.37;;;19.17;;
12665;SDS011;58531;59.050;17.416;2023-08-31T03:38:37;21.60;;;20.50;;
12665;SDS011;58531;59.050;17.416;2023-08-31T03:41:04;18.77;;;17.87;;
12665;SDS011;58531;59.050;17.416;2023-08-31T03:43:33;18.80;;;17.83;;
12665;SDS011;58531;59.050;17.416;2023-08-31T03:46:00;21.17;;;20.20;;
12665;SDS011;58531;59.050;17.416;2023-08-31T03:48:27;18.23;;;17.33;;
12665;SDS011;58531;59.050;17.416;2023-08-31T03:50:54;19.63;;;18.70;;
12665;SDS011;58531;59.050;17.416;2023-08-31T03:53:22;23.93;;;22.47;;
12665;SDS011;58531;59.050;17.416;2023-08-31T03:55:49;21.03;;;20.03;;
12665;SDS011;58531;59.050;17.416;2023-08-31T03:58:16;22.70;;;21.50;;
12665;SDS011;58531;59.050;17.416;2023-08-31T04:00:44;19.53;;;18.63;;
12665;SDS011;58531;59.050;17.416;2023-08-31T04:03:11;20.13;;;19.13;;
12665;SDS011;58531;59.050;17.416;2023-08-31T04:05:38;21.87;;;20.77;;
12665;SDS011;58531;59.050;17.416;2023-08-31T04:08:05;24.33;;;23.17;;
12665;SDS011;58531;59.050;17.416;2023-08-31T04:10:32;20.63;;;19.53;;
12665;SDS011;58531;59.050;17.416;2023-08-31T04:12:59;19.57;;;18.47;;
12665;SDS011;58531;59.050;17.416;2023-08-31T04:15:26;20.50;;;19.47;;
12665;SDS011;58531;59.050;17.416;2023-08-31T04:17:54;22.40;;;21.27;;
12665;SDS011;58531;59.050;17.416;2023-08-31T04:20:21;20.43;;;19.23;;
12665;SDS011;58531;59.050;17.416;2023-08-31T04:22:48;23.77;;;22.60;;
12665;SDS011;58531;59.050;17.416;2023-08-31T04:25:15;23.30;;;22.13;;
12665;SDS011;58531;59.050;17.416;2023-08-31T04:27:42;20.03;;;19.10;;
12665;SDS011;58531;59.050;17.416;2023-08-31T04:30:10;20.23;;;19.10;;
12665;SDS011;58531;59.050;17.416;2023-08-31T04:32:38;21.77;;;20.70;;
12665;SDS011;58531;59.050;17.416;2023-08-31T04:35:06;23.80;;;22.30;;
12665;SDS011;58531;59.050;17.416;2023-08-31T04:37:34;21.93;;;20.80;;
12665;SDS011;58531;59.050;17.416;2023-08-31T04:40:01;23.73;;;22.53;;
12665;SDS011;58531;59.050;17.416;2023-08-31T04:42:29;23.63;;;22.53;;
12665;SDS011;58531;59.050;17.416;2023-08-31T04:44:55;22.17;;;21.07;;
12665;SDS011;58531;59.050;17.416;2023-08-31T04:47:22;22.73;;;21.73;;
12665;SDS011;58531;59.050;17.416;2023-08-31T04:49:49;22.67;;;21.60;;
12665;SDS011;58531;59.050;17.416;2023-08-31T04:52:17;22.43;;;21.23;;
12665;SDS011;58531;59.050;17.416;2023-08-31T04:54:44;25.23;;;23.90;;
12665;SDS011;58531;59.050;17.416;2023-08-31T04:57:11;23.60;;;21.70;;
12665;SDS011;58531;59.050;17.416;2023-08-31T04:59:38;20.10;;;19.20;;
12665;SDS011;58531;59.050;17.416;2023-08-31T05:02:05;21.53;;;20.43;;
12665;SDS011;58531;59.050;17.416;2023-08-31T05:04:31;23.30;;;22.03;;
12665;SDS011;58531;59.050;17.416;2023-08-31T05:06:58;22.33;;;21.33;;
12665;SDS011;58531;59.050;17.416;2023-08-31T05:09:26;21.97;;;20.93;;
12665;SDS011;58531;59.050;17.416;2023-08-31T05:11:57;21.83;;;20.83;;
12665;SDS011;58531;59.050;17.416;2023-08-31T05:14:24;25.30;;;24.07;;
12665;SDS011;58531;59.050;17.416;2023-08-31T05:16:51;20.53;;;19.63;;
12665;SDS011;58531;59.050;17.416;2023-08-31T05:19:17;23.03;;;22.07;;
12665;SDS011;58531;59.050;17.416;2023-08-31T05:21:44;20.27;;;19.13;;
12665;SDS011;58531;59.050;17.416;2023-08-31T05:24:11;22.67;;;21.23;;
12665;SDS011;58531;59.050;17.416;2023-08-31T05:26:39;21.93;;;20.70;;
12665;SDS011;58531;59.050;17.416;2023-08-31T05:29:06;19.30;;;18.50;;
12665;SDS011;58531;59.050;17.416;2023-08-31T05:31:33;20.10;;;19.20;;
12665;SDS011;58531;59.050;17.416;2023-08-31T05:34:00;19.93;;;19.13;;
12665;SDS011;58531;59.050;17.416;2023-08-31T05:36:27;21.40;;;20.43;;
12665;SDS011;58531;59.050;17.416;2023-08-31T05:38:54;21.03;;;20.13;;
12665;SDS011;58531;59.050;17.416;2023-08-31T05:41:20;17.93;;;17.13;;
12665;SDS011;58531;59.050;17.416;2023-08-31T05:43:49;19.23;;;18.33;;
12665;SDS011;58531;59.050;17.416;2023-08-31T05:46:16;24.03;;;23.13;;
12665;SDS011;58531;59.050;17.416;2023-08-31T05:48:43;26.20;;;25.30;;
12665;SDS011;58531;59.050;17.416;2023-08-31T05:51:14;26.87;;;25.87;;
12665;SDS011;58531;59.050;17.416;2023-08-31T05:53:41;23.93;;;22.93;;
12665;SDS011;58531;59.050;17.416;2023-08-31T05:56:08;22.07;;;21.23;;
12665;SDS011;58531;59.050;17.416;2023-08-31T05:58:35;21.57;;;20.67;;
12665;SDS011;58531;59.050;17.416;2023-08-31T06:01:08;19.23;;;18.47;;
12665;SDS011;58531;59.050;17.416;2023-08-31T06:03:35;16.30;;;15.70;;
12665;SDS011;58531;59.050;17.416;2023-08-31T06:06:02;9.67;;;9.27;;
12665;SDS011;58531;59.050;17.416;2023-08-31T06:08:29;7.73;;;7.33;;
12665;SDS011;58531;59.050;17.416;2023-08-31T06:10:56;6.73;;;6.43;;
12665;SDS011;58531;59.050;17.416;2023-08-31T06:13:23;6.50;;;6.10;;
12665;SDS011;58531;59.050;17.416;2023-08-31T06:15:50;7.73;;;7.43;;
12665;SDS011;58531;59.050;17.416;2023-08-31T06:18:18;8.53;;;8.13;;
12665;SDS011;58531;59.050;17.416;2023-08-31T06:20:45;14.17;;;13.60;;
12665;SDS011;58531;59.050;17.416;2023-08-31T06:23:13;15.03;;;14.43;;
12665;SDS011;58531;59.050;17.416;2023-08-31T06:25:40;16.23;;;15.53;;
12665;SDS011;58531;59.050;17.416;2023-08-31T06:28:07;10.80;;;10.20;;
12665;SDS011;58531;59.050;17.416;2023-08-31T06:30:36;10.90;;;10.40;;
12665;SDS011;58531;59.050;17.416;2023-08-31T06:33:03;8.53;;;8.13;;
12665;SDS011;58531;59.050;17.416;2023-08-31T06:35:32;13.67;;;13.07;;
12665;SDS011;58531;59.050;17.416;2023-08-31T06:37:59;14.83;;;14.13;;
12665;SDS011;58531;59.050;17.416;2023-08-31T06:40:26;16.77;;;16.07;;
12665;SDS011;58531;59.050;17.416;2023-08-31T06:42:52;19.47;;;18.67;;
12665;SDS011;58531;59.050;17.416;2023-08-31T06:45:19;23.27;;;22.37;;
12665;SDS011;58531;59.050;17.416;2023-08-31T06:47:46;26.43;;;25.27;;
12665;SDS011;58531;59.050;17.416;2023-08-31T06:50:13;23.63;;;22.73;;
12665;SDS011;58531;59.050;17.416;2023-08-31T06:52:41;24.40;;;23.47;;
12665;SDS011;58531;59.050;17.416;2023-08-31T06:55:09;27.43;;;26.37;;
12665;SDS011;58531;59.050;17.416;2023-08-31T06:57:37;28.60;;;27.50;;
12665;SDS011;58531;59.050;17.416;2023-08-31T07:00:04;26.77;;;25.67;;
12665;SDS011;58531;59.050;17.416;2023-08-31T07:02:33;19.63;;;18.90;;
12665;SDS011;58531;59.050;17.416;2023-08-31T07:05:00;24.13;;;23.23;;
12665;SDS011;58531;59.050;17.416;2023-08-31T07:07:29;18.77;;;18.03;;
12665;SDS011;58531;59.050;17.416;2023-08-31T07:09:57;27.10;;;26.10;;
12665;SDS011;58531;59.050;17.416;2023-08-31T07:12:24;19.97;;;18.97;;
12665;SDS011;58531;59.050;17.416;2023-08-31T07:14:51;22.90;;;22.00;;
12665;SDS011;58531;59.050;17.416;2023-08-31T07:17:18;16.90;;;16.23;;
12665;SDS011;58531;59.050;17.416;2023-08-31T07:19:45;17.93;;;17.23;;
12665;SDS011;58531;59.050;17.416;2023-08-31T07:22:12;18.20;;;17.50;;
12665;SDS011;58531;59.050;17.416;2023-08-31T07:24:39;16.77;;;16.13;;
12665;SDS011;58531;59.050;17.416;2023-08-31T07:27:08;22.10;;;21.20;;
12665;SDS011;58531;59.050;17.416;2023-08-31T07:29:35;26.23;;;25.13;;
12665;SDS011;58531;59.050;17.416;2023-08-31T07:32:02;23.77;;;22.73;;
12665;SDS011;58531;59.050;17.416;2023-08-31T07:34:29;29.27;;;28.10;;
12665;SDS011;58531;59.050;17.416;2023-08-31T07:36:56;27.57;;;26.57;;
12665;SDS011;58531;59.050;17.416;2023-08-31T07:39:23;30.87;;;29.70;;
12665;SDS011;58531;59.050;17.416;2023-08-31T07:41:50;30.53;;;29.43;;
12665;SDS011;58531;59.050;17.416;2023-08-31T07:44:18;18.83;;;18.03;;
12665;SDS011;58531;59.050;17.416;2023-08-31T07:46:45;18.13;;;17.43;;
12665;SDS011;58531;59.050;17.416;2023-08-31T07:49:12;22.93;;;22.03;;
12665;SDS011;58531;59.050;17.416;2023-08-31T07:51:38;24.47;;;23.33;;
12665;SDS011;58531;59.050;17.416;2023-08-31T07:54:05;24.20;;;23.20;;
12665;SDS011;58531;59.050;17.416;2023-08-31T07:56:32;13.40;;;12.80;;
12665;SDS011;58531;59.050;17.416;2023-08-31T07:58:59;12.93;;;12.43;;
12665;SDS011;58531;59.050;17.416;2023-08-31T08:01:27;11.40;;;10.90;;
12665;SDS011;58531;59.050;17.416;2023-08-31T08:03:54;9.03;;;8.63;;
12665;SDS011;58531;59.050;17.416;2023-08-31T08:06:21;7.63;;;7.33;;
12665;SDS011;58531;59.050;17.416;2023-08-31T08:08:48;7.77;;;7.47;;
12665;SDS011;58531;59.050;17.416;2023-08-31T08:11:14;5.20;;;5.00;;
12665;SDS011;58531;59.050;17.416;2023-08-31T08:13:41;7.73;;;7.43;;
12665;SDS011;58531;59.050;17.416;2023-08-31T08:16:08;8.43;;;8.03;;
12665;SDS011;58531;59.050;17.416;2023-08-31T08:18:36;6.50;;;6.20;;
12665;SDS011;58531;59.050;17.416;2023-08-31T08:21:03;6.70;;;6.40;;
12665;SDS011;58531;59.050;17.416;2023-08-31T08:23:30;9.30;;;8.90;;
12665;SDS011;58531;59.050;17.416;2023-08-31T08:25:57;8.13;;;7.83;;
12665;SDS011;58531;59.050;17.416;2023-08-31T08:28:24;7.50;;;7.20;;
12665;SDS011;58531;59.050;17.416;2023-08-31T08:30:51;11.00;;;10.60;;
12665;SDS011;58531;59.050;17.416;2023-08-31T08:33:18;7.77;;;7.47;;
12665;SDS011;58531;59.050;17.416;2023-08-31T08:35:46;10.10;;;9.70;;
12665;SDS011;58531;59.050;17.416;2023-08-31T08:38:13;7.97;;;7.67;;
12665;SDS011;58531;59.050;17.416;2023-08-31T08:40:40;9.03;;;8.63;;
12665;SDS011;58531;59.050;17.416;2023-08-31T08:43:07;12.23;;;11.73;;
12665;SDS011;58531;59.050;17.416;2023-08-31T08:45:35;14.03;;;13.53;;
12665;SDS011;58531;59.050;17.416;2023-08-31T08:48:04;10.97;;;10.57;;
12665;SDS011;58531;59.050;17.416;2023-08-31T08:50:32;7.87;;;7.57;;
12665;SDS011;58531;59.050;17.416;2023-08-31T08:53:01;11.07;;;10.67;;
12665;SDS011;58531;59.050;17.416;2023-08-31T08:55:29;10.70;;;10.20;;
12665;SDS011;58531;59.050;17.416;2023-08-31T08:57:57;13.93;;;13.33;;
12665;SDS011;58531;59.050;17.416;2023-08-31T09:00:24;6.87;;;6.57;;
12665;SDS011;58531;59.050;17.416;2023-08-31T09:02:52;10.30;;;9.87;;
12665;SDS011;58531;59.050;17.416;2023-08-31T09:05:19;10.93;;;10.43;;
12665;SDS011;58531;59.050;17.416;2023-08-31T09:08:02;11.67;;;11.07;;
12665;SDS011;58531;59.050;17.416;2023-08-31T09:10:35;10.57;;;9.97;;
12665;SDS011;58531;59.050;17.416;2023-08-31T09:13:06;9.60;;;9.03;;
12665;SDS011;58531;59.050;17.416;2023-08-31T09:15:39;12.07;;;11.67;;
12665;SDS011;58531;59.050;17.416;2023-08-31T09:18:07;11.67;;;11.27;;
12665;SDS011;58531;59.050;17.416;2023-08-31T09:20:42;10.10;;;9.70;;
12665;SDS011;58531;59.050;17.416;2023-08-31T09:23:11;9.80;;;9.40;;
12665;SDS011;58531;59.050;17.416;2023-08-31T09:25:40;11.47;;;11.07;;
12665;SDS011;58531;59.050;17.416;2023-08-31T09:28:08;11.07;;;10.67;;
12665;SDS011;58531;59.050;17.416;2023-08-31T09:30:35;10.07;;;9.67;;
12665;SDS011;58531;59.050;17.416;2023-08-31T09:33:03;12.87;;;12.37;;
12665;SDS011;58531;59.050;17.416;2023-08-31T09:35:31;11.67;;;11.17;;
12665;SDS011;58531;59.050;17.416;2023-08-31T09:37:58;13.40;;;12.90;;
12665;SDS011;58531;59.050;17.416;2023-08-31T09:40:28;10.93;;;10.43;;
12665;SDS011;58531;59.050;17.416;2023-08-31T09:42:55;13.03;;;12.53;;
12665;SDS011;58531;59.050;17.416;2023-08-31T09:45:25;14.67;;;14.07;;
12665;SDS011;58531;59.050;17.416;2023-08-31T09:47:55;13.93;;;13.37;;
12665;SDS011;58531;59.050;17.416;2023-08-31T09:50:22;10.23;;;9.73;;
12665;SDS011;58531;59.050;17.416;2023-08-31T09:52:50;11.93;;;11.43;;
12665;SDS011;58531;59.050;17.416;2023-08-31T09:55:22;11.57;;;11.03;;
12665;SDS011;58531;59.050;17.416;2023-08-31T09:57:53;10.37;;;9.97;;
12665;SDS011;58531;59.050;17.416;2023-08-31T10:00:23;10.63;;;10.23;;
12665;SDS011;58531;59.050;17.416;2023-08-31T10:02:52;13.77;;;13.27;;
12665;SDS011;58531;59.050;17.416;2023-08-31T10:05:20;11.57;;;10.87;;
12665;SDS011;58531;59.050;17.416;2023-08-31T10:07:47;12.73;;;12.23;;
12665;SDS011;58531;59.050;17.416;2023-08-31T10:10:14;13.00;;;12.50;;
12665;SDS011;58531;59.050;17.416;2023-08-31T10:12:42;8.57;;;8.17;;
12665;SDS011;58531;59.050;17.416;2023-08-31T10:15:13;13.97;;;13.47;;
12665;SDS011;58531;59.050;17.416;2023-08-31T10:17:41;15.20;;;14.63;;
12665;SDS011;58531;59.050;17.416;2023-08-31T10:20:09;13.90;;;13.30;;
12665;SDS011;58531;59.050;17.416;2023-08-31T10:22:37;14.27;;;13.77;;
12665;SDS011;58531;59.050;17.416;2023-08-31T10:25:05;14.13;;;13.63;;
12665;SDS011;58531;59.050;17.416;2023-08-31T10:27:36;14.00;;;13.47;;
12665;SDS011;58531;59.050;17.416;2023-08-31T10:30:15;14.30;;;13.70;;
12665;SDS011;58531;59.050;17.416;2023-08-31T10:35:49;13.07;;;12.57;;
12665;SDS011;58531;59.050;17.416;2023-08-31T10:38:19;15.83;;;15.23;;
12665;SDS011;58531;59.050;17.416;2023-08-31T10:41:00;13.37;;;12.87;;
12665;SDS011;58531;59.050;17.416;2023-08-31T10:43:45;13.40;;;12.67;;
12665;SDS011;58531;59.050;17.416;2023-08-31T10:46:25;12.17;;;11.67;;
12665;SDS011;58531;59.050;17.416;2023-08-31T10:48:54;12.90;;;12.40;;
12665;SDS011;58531;59.050;17.416;2023-08-31T10:51:24;11.30;;;10.90;;
12665;SDS011;58531;59.050;17.416;2023-08-31T10:53:53;15.13;;;14.63;;
12665;SDS011;58531;59.050;17.416;2023-08-31T10:56:30;17.93;;;17.20;;
12665;SDS011;58531;59.050;17.416;2023-08-31T10:58:58;20.37;;;19.67;;
12665;SDS011;58531;59.050;17.416;2023-08-31T11:04:20;18.20;;;17.50;;
12665;SDS011;58531;59.050;17.416;2023-08-31T11:06:47;16.83;;;16.13;;
12665;SDS011;58531;59.050;17.416;2023-08-31T11:09:18;19.27;;;18.57;;
12665;SDS011;58531;59.050;17.416;2023-08-31T11:11:45;17.40;;;16.70;;
12665;SDS011;58531;59.050;17.416;2023-08-31T11:14:12;21.63;;;20.83;;
12665;SDS011;58531;59.050;17.416;2023-08-31T11:16:40;15.90;;;15.30;;
12665;SDS011;58531;59.050;17.416;2023-08-31T11:19:09;13.03;;;12.53;;
12665;SDS011;58531;59.050;17.416;2023-08-31T11:21:36;12.77;;;12.27;;
12665;SDS011;58531;59.050;17.416;2023-08-31T11:24:04;31.50;;;30.40;;
12665;SDS011;58531;59.050;17.416;2023-08-31T11:26:31;13.43;;;12.90;;
12665;SDS011;58531;59.050;17.416;2023-08-31T11:28:58;12.87;;;12.40;;
12665;SDS011;58531;59.050;17.416;2023-08-31T11:31:25;11.73;;;11.13;;
12665;SDS011;58531;59.050;17.416;2023-08-31T11:33:53;11.47;;;11.03;;
12665;SDS011;58531;59.050;17.416;2023-08-31T11:36:22;14.00;;;13.40;;
12665;SDS011;58531;59.050;17.416;2023-08-31T11:38:50;18.03;;;17.33;;
12665;SDS011;58531;59.050;17.416;2023-08-31T11:41:17;12.33;;;11.83;;
12665;SDS011;58531;59.050;17.416;2023-08-31T11:43:46;12.33;;;11.83;;
12665;SDS011;58531;59.050;17.416;2023-08-31T11:46:14;11.53;;;11.13;;
12665;SDS011;58531;59.050;17.416;2023-08-31T11:48:42;13.50;;;13.00;;
12665;SDS011;58531;59.050;17.416;2023-08-31T11:51:10;12.57;;;12.07;;
12665;SDS011;58531;59.050;17.416;2023-08-31T11:53:39;15.80;;;15.10;;
12665;SDS011;58531;59.050;17.416;2023-08-31T11:56:06;14.37;;;13.87;;
12665;SDS011;58531;59.050;17.416;2023-08-31T11:58:33;16.17;;;15.57;;
12665;SDS011;58531;59.050;17.416;2023-08-31T12:01:07;16.90;;;16.27;;
12665;SDS011;58531;59.050;17.416;2023-08-31T12:03:41;17.40;;;16.80;;
12665;SDS011;58531;59.050;17.416;2023-08-31T12:06:09;14.90;;;14.30;;
12665;SDS011;58531;59.050;17.416;2023-08-31T12:08:36;15.23;;;14.67;;
12665;SDS011;58531;59.050;17.416;2023-08-31T12:11:07;13.90;;;13.20;;
12665;SDS011;58531;59.050;17.416;2023-08-31T12:13:34;15.77;;;15.23;;
12665;SDS011;58531;59.050;17.416;2023-08-31T12:16:01;15.30;;;14.70;;
12665;SDS011;58531;59.050;17.416;2023-08-31T12:18:29;13.87;;;13.37;;
12665;SDS011;58531;59.050;17.416;2023-08-31T12:20:56;12.40;;;11.77;;
12665;SDS011;58531;59.050;17.416;2023-08-31T12:23:24;10.90;;;10.40;;
12665;SDS011;58531;59.050;17.416;2023-08-31T12:25:51;13.73;;;13.23;;
12665;SDS011;58531;59.050;17.416;2023-08-31T12:28:20;13.30;;;12.77;;
12665;SDS011;58531;59.050;17.416;2023-08-31T12:30:48;11.10;;;10.70;;
12665;SDS011;58531;59.050;17.416;2023-08-31T12:33:16;10.37;;;9.97;;
12665;SDS011;58531;59.050;17.416;2023-08-31T12:35:43;12.80;;;12.20;;
12665;SDS011;58531;59.050;17.416;2023-08-31T12:38:11;11.67;;;11.20;;
12665;SDS011;58531;59.050;17.416;2023-08-31T12:40:38;12.57;;;12.07;;
12665;SDS011;58531;59.050;17.416;2023-08-31T12:43:05;11.27;;;10.80;;
12665;SDS011;58531;59.050;17.416;2023-08-31T12:45:33;13.10;;;12.30;;
12665;SDS011;58531;59.050;17.416;2023-08-31T12:48:01;13.40;;;12.87;;
12665;SDS011;58531;59.050;17.416;2023-08-31T12:50:29;10.47;;;9.97;;
12665;SDS011;58531;59.050;17.416;2023-08-31T12:52:56;11.03;;;10.40;;
12665;SDS011;58531;59.050;17.416;2023-08-31T12:55:23;10.37;;;9.77;;
12665;SDS011;58531;59.050;17.416;2023-08-31T12:57:50;10.63;;;10.23;;
12665;SDS011;58531;59.050;17.416;2023-08-31T13:00:18;9.97;;;9.47;;
12665;SDS011;58531;59.050;17.416;2023-08-31T13:02:46;11.00;;;10.50;;
12665;SDS011;58531;59.050;17.416;2023-08-31T13:05:15;10.60;;;10.20;;
12665;SDS011;58531;59.050;17.416;2023-08-31T13:07:42;9.33;;;8.70;;
12665;SDS011;58531;59.050;17.416;2023-08-31T13:10:09;12.67;;;12.17;;
12665;SDS011;58531;59.050;17.416;2023-08-31T13:12:36;10.83;;;10.43;;
12665;SDS011;58531;59.050;17.416;2023-08-31T13:15:03;13.43;;;12.83;;
12665;SDS011;58531;59.050;17.416;2023-08-31T13:17:33;10.50;;;10.10;;
12665;SDS011;58531;59.050;17.416;2023-08-31T13:20:01;14.63;;;14.07;;
12665;SDS011;58531;59.050;17.416;2023-08-31T13:22:29;15.27;;;14.57;;
12665;SDS011;58531;59.050;17.416;2023-08-31T13:24:56;12.07;;;11.57;;
12665;SDS011;58531;59.050;17.416;2023-08-31T13:27:24;9.97;;;9.57;;
12665;SDS011;58531;59.050;17.416;2023-08-31T13:29:51;12.77;;;12.27;;
12665;SDS011;58531;59.050;17.416;2023-08-31T13:32:18;12.33;;;11.90;;
12665;SDS011;58531;59.050;17.416;2023-08-31T13:34:44;12.23;;;11.73;;
12665;SDS011;58531;59.050;17.416;2023-08-31T13:37:13;14.97;;;14.37;;
12665;SDS011;58531;59.050;17.416;2023-08-31T13:39:39;15.43;;;14.73;;
12665;SDS011;58531;59.050;17.416;2023-08-31T13:42:06;14.70;;;14.10;;
12665;SDS011;58531;59.050;17.416;2023-08-31T13:44:33;13.00;;;12.50;;
12665;SDS011;58531;59.050;17.416;2023-08-31T13:47:01;16.27;;;15.67;;
12665;SDS011;58531;59.050;17.416;2023-08-31T13:49:28;12.77;;;12.27;;
12665;SDS011;58531;59.050;17.416;2023-08-31T13:51:55;11.53;;;11.13;;
12665;SDS011;58531;59.050;17.416;2023-08-31T13:54:23;10.43;;;9.93;;
12665;SDS011;58531;59.050;17.416;2023-08-31T13:56:51;11.93;;;11.43;;
12665;SDS011;58531;59.050;17.416;2023-08-31T13:59:18;12.37;;;11.87;;
12665;SDS011;58531;59.050;17.416;2023-08-31T14:01:45;14.07;;;13.47;;
12665;SDS011;58531;59.050;17.416;2023-08-31T14:04:12;8.63;;;8.23;;
12665;SDS011;58531;59.050;17.416;2023-08-31T14:06:39;10.43;;;9.93;;
12665;SDS011;58531;59.050;17.416;2023-08-31T14:09:05;12.47;;;11.97;;
12665;SDS011;58531;59.050;17.416;2023-08-31T14:11:34;10.37;;;9.80;;
12665;SDS011;58531;59.050;17.416;2023-08-31T14:14:02;12.70;;;12.20;;
12665;SDS011;58531;59.050;17.416;2023-08-31T14:16:31;11.90;;;11.40;;
12665;SDS011;58531;59.050;17.416;2023-08-31T14:18:58;10.73;;;10.20;;
12665;SDS011;58531;59.050;17.416;2023-08-31T14:21:25;10.67;;;10.27;;